sensor_id;sensor_type;location;lat;lon;timestamp;P1;durP1;ratioP1;P2;durP2;ratioP2
62121;SDS011;48108;47.532;19.084;2022-07-06T03:56:24;5.97;;;5.37;;
62121;SDS011;48108;47.532;19.084;2022-07-06T03:59:36;7.03;;;5.65;;
62121;SDS011;48108;47.532;19.084;2022-07-06T04:02:38;6.68;;;5.60;;
62121;SDS011;48108;47.532;19.084;2022-07-06T04:05:42;7.28;;;5.32;;
62121;SDS011;48108;47.532;19.084;2022-07-06T04:08:45;6.95;;;5.50;;
62121;SDS011;48108;47.532;19.084;2022-07-06T04:11:48;5.97;;;5.10;;
62121;SDS011;48108;47.532;19.084;2022-07-06T04:14:51;5.20;;;4.70;;
62121;SDS011;48108;47.532;19.084;2022-07-06T04:17:54;7.18;;;5.30;;
62121;SDS011;48108;47.532;19.084;2022-07-06T04:20:58;5.93;;;5.32;;
62121;SDS011;48108;47.532;19.084;2022-07-06T04:24:02;5.68;;;4.60;;
62121;SDS011;48108;47.532;19.084;2022-07-06T04:27:05;5.55;;;4.72;;
62121;SDS011;48108;47.532;19.084;2022-07-06T04:30:09;7.30;;;4.82;;
62121;SDS011;48108;47.532;19.084;2022-07-06T04:33:13;5.20;;;4.70;;
62121;SDS011;48108;47.532;19.084;2022-07-06T04:36:17;5.57;;;4.45;;
62121;SDS011;48108;47.532;19.084;2022-07-06T04:39:21;4.60;;;4.05;;
62121;SDS011;48108;47.532;19.084;2022-07-06T04:42:27;6.50;;;4.47;;
62121;SDS011;48108;47.532;19.084;2022-07-06T04:45:30;4.75;;;4.32;;
62121;SDS011;48108;47.532;19.084;2022-07-06T04:48:34;5.53;;;4.20;;
62121;SDS011;48108;47.532;19.084;2022-07-06T04:51:42;5.82;;;4.15;;
62121;SDS011;48108;47.532;19.084;2022-07-06T04:54:45;6.32;;;4.10;;
62121;SDS011;48108;47.532;19.084;2022-07-06T04:57:48;4.78;;;4.37;;
62121;SDS011;48108;47.532;19.084;2022-07-06T05:00:52;5.00;;;3.75;;
62121;SDS011;48108;47.532;19.084;2022-07-06T05:03:58;4.45;;;4.05;;
62121;SDS011;48108;47.532;19.084;2022-07-06T05:07:01;4.45;;;3.85;;
62121;SDS011;48108;47.532;19.084;2022-07-06T05:10:04;4.05;;;3.65;;
62121;SDS011;48108;47.532;19.084;2022-07-06T05:13:08;4.97;;;3.58;;
62121;SDS011;48108;47.532;19.084;2022-07-06T05:16:11;3.92;;;3.62;;
62121;SDS011;48108;47.532;19.084;2022-07-06T05:19:15;4.97;;;3.47;;
62121;SDS011;48108;47.532;19.084;2022-07-06T05:22:19;4.53;;;3.50;;
62121;SDS011;48108;47.532;19.084;2022-07-06T05:25:22;3.83;;;3.50;;
62121;SDS011;48108;47.532;19.084;2022-07-06T05:28:25;3.97;;;3.55;;
62121;SDS011;48108;47.532;19.084;2022-07-06T05:31:35;3.70;;;3.40;;
62121;SDS011;48108;47.532;19.084;2022-07-06T05:34:38;4.07;;;3.40;;
62121;SDS011;48108;47.532;19.084;2022-07-06T05:37:42;4.95;;;3.50;;
62121;SDS011;48108;47.532;19.084;2022-07-06T05:40:45;5.45;;;3.42;;
62121;SDS011;48108;47.532;19.084;2022-07-06T05:43:49;5.78;;;3.42;;
62121;SDS011;48108;47.532;19.084;2022-07-06T05:46:52;3.60;;;3.30;;
62121;SDS011;48108;47.532;19.084;2022-07-06T05:50:15;4.65;;;3.22;;
62121;SDS011;48108;47.532;19.084;2022-07-06T05:53:20;3.45;;;3.20;;
62121;SDS011;48108;47.532;19.084;2022-07-06T05:56:24;3.85;;;3.50;;
62121;SDS011;48108;47.532;19.084;2022-07-06T05:59:27;3.92;;;3.53;;
62121;SDS011;48108;47.532;19.084;2022-07-06T06:02:40;3.80;;;3.30;;
62121;SDS011;48108;47.532;19.084;2022-07-06T06:05:44;3.53;;;3.22;;
62121;SDS011;48108;47.532;19.084;2022-07-06T06:08:47;3.70;;;3.40;;
62121;SDS011;48108;47.532;19.084;2022-07-06T06:11:51;3.67;;;3.28;;
62121;SDS011;48108;47.532;19.084;2022-07-06T06:14:53;3.50;;;3.20;;
62121;SDS011;48108;47.532;19.084;2022-07-06T06:17:56;5.72;;;3.22;;
62121;SDS011;48108;47.532;19.084;2022-07-06T06:20:59;3.83;;;3.53;;
62121;SDS011;48108;47.532;19.084;2022-07-06T06:24:02;5.25;;;3.47;;
62121;SDS011;48108;47.532;19.084;2022-07-06T06:27:05;4.03;;;3.62;;
62121;SDS011;48108;47.532;19.084;2022-07-06T06:30:08;3.47;;;3.17;;
62121;SDS011;48108;47.532;19.084;2022-07-06T06:33:13;4.12;;;3.55;;
62121;SDS011;48108;47.532;19.084;2022-07-06T06:36:20;4.67;;;3.80;;
62121;SDS011;48108;47.532;19.084;2022-07-06T06:39:23;3.90;;;3.03;;
62121;SDS011;48108;47.532;19.084;2022-07-06T06:42:26;4.07;;;3.50;;
62121;SDS011;48108;47.532;19.084;2022-07-06T06:45:28;4.22;;;3.60;;
62121;SDS011;48108;47.532;19.084;2022-07-06T06:48:31;5.72;;;3.40;;
62121;SDS011;48108;47.532;19.084;2022-07-06T06:51:34;3.55;;;3.22;;
62121;SDS011;48108;47.532;19.084;2022-07-06T06:54:40;4.62;;;3.67;;
62121;SDS011;48108;47.532;19.084;2022-07-06T06:57:43;3.53;;;3.22;;
62121;SDS011;48108;47.532;19.084;2022-07-06T07:00:46;4.78;;;4.28;;
62121;SDS011;48108;47.532;19.084;2022-07-06T07:03:50;4.87;;;3.37;;
62121;SDS011;48108;47.532;19.084;2022-07-06T07:06:53;4.28;;;3.15;;
62121;SDS011;48108;47.532;19.084;2022-07-06T07:09:56;4.65;;;3.50;;
62121;SDS011;48108;47.532;19.084;2022-07-06T07:12:59;3.67;;;3.37;;
62121;SDS011;48108;47.532;19.084;2022-07-06T07:16:02;3.83;;;3.42;;
62121;SDS011;48108;47.532;19.084;2022-07-06T07:19:05;4.30;;;3.80;;
62121;SDS011;48108;47.532;19.084;2022-07-06T07:22:08;4.35;;;3.85;;
62121;SDS011;48108;47.532;19.084;2022-07-06T07:25:11;3.75;;;3.33;;
62121;SDS011;48108;47.532;19.084;2022-07-06T07:28:14;4.20;;;3.10;;
62121;SDS011;48108;47.532;19.084;2022-07-06T07:31:17;4.03;;;3.45;;
62121;SDS011;48108;47.532;19.084;2022-07-06T07:34:19;6.12;;;3.70;;
62121;SDS011;48108;47.532;19.084;2022-07-06T07:37:22;3.55;;;3.20;;
62121;SDS011;48108;47.532;19.084;2022-07-06T07:40:25;3.10;;;2.90;;
62121;SDS011;48108;47.532;19.084;2022-07-06T07:43:29;3.90;;;3.37;;
62121;SDS011;48108;47.532;19.084;2022-07-06T07:46:32;3.15;;;2.85;;
62121;SDS011;48108;47.532;19.084;2022-07-06T07:49:35;4.18;;;3.50;;
62121;SDS011;48108;47.532;19.084;2022-07-06T07:52:37;3.65;;;3.03;;
62121;SDS011;48108;47.532;19.084;2022-07-06T07:55:40;3.87;;;2.80;;
62121;SDS011;48108;47.532;19.084;2022-07-06T07:58:44;3.10;;;2.80;;
62121;SDS011;48108;47.532;19.084;2022-07-06T08:01:47;3.00;;;2.53;;
62121;SDS011;48108;47.532;19.084;2022-07-06T08:04:50;3.40;;;2.10;;
62121;SDS011;48108;47.532;19.084;2022-07-06T08:07:53;2.28;;;2.10;;
62121;SDS011;48108;47.532;19.084;2022-07-06T08:10:56;2.25;;;2.15;;
62121;SDS011;48108;47.532;19.084;2022-07-06T08:14:19;2.50;;;1.75;;
62121;SDS011;48108;47.532;19.084;2022-07-06T08:17:21;3.70;;;2.00;;
62121;SDS011;48108;47.532;19.084;2022-07-06T08:20:24;1.83;;;1.73;;
62121;SDS011;48108;47.532;19.084;2022-07-06T08:23:27;1.70;;;1.60;;
62121;SDS011;48108;47.532;19.084;2022-07-06T08:26:30;2.00;;;1.80;;
62121;SDS011;48108;47.532;19.084;2022-07-06T08:29:33;1.75;;;1.65;;
62121;SDS011;48108;47.532;19.084;2022-07-06T08:32:39;2.10;;;1.90;;
62121;SDS011;48108;47.532;19.084;2022-07-06T08:36:03;2.55;;;2.35;;
62121;SDS011;48108;47.532;19.084;2022-07-06T08:39:07;1.85;;;1.75;;
62121;SDS011;48108;47.532;19.084;2022-07-06T08:42:10;2.35;;;2.15;;
62121;SDS011;48108;47.532;19.084;2022-07-06T08:45:15;1.35;;;1.25;;
62121;SDS011;48108;47.532;19.084;2022-07-06T08:48:19;1.65;;;1.55;;
62121;SDS011;48108;47.532;19.084;2022-07-06T08:51:25;1.75;;;1.65;;
62121;SDS011;48108;47.532;19.084;2022-07-06T08:54:32;1.90;;;1.80;;
62121;SDS011;48108;47.532;19.084;2022-07-06T08:57:34;1.67;;;1.58;;
62121;SDS011;48108;47.532;19.084;2022-07-06T09:00:38;2.35;;;1.80;;
62121;SDS011;48108;47.532;19.084;2022-07-06T09:03:41;2.00;;;1.80;;
62121;SDS011;48108;47.532;19.084;2022-07-06T09:06:46;3.70;;;2.05;;
62121;SDS011;48108;47.532;19.084;2022-07-06T09:09:50;1.92;;;1.60;;
62121;SDS011;48108;47.532;19.084;2022-07-06T09:13:02;1.40;;;1.30;;
62121;SDS011;48108;47.532;19.084;2022-07-06T09:16:12;1.62;;;1.52;;
62121;SDS011;48108;47.532;19.084;2022-07-06T09:19:36;1.60;;;1.50;;
62121;SDS011;48108;47.532;19.084;2022-07-06T09:22:39;3.15;;;2.17;;
62121;SDS011;48108;47.532;19.084;2022-07-06T09:25:42;2.72;;;2.20;;
62121;SDS011;48108;47.532;19.084;2022-07-06T09:28:51;3.67;;;2.20;;
62121;SDS011;48108;47.532;19.084;2022-07-06T09:31:55;2.25;;;1.90;;
62121;SDS011;48108;47.532;19.084;2022-07-06T09:35:02;3.28;;;1.90;;
62121;SDS011;48108;47.532;19.084;2022-07-06T09:38:11;6.32;;;1.95;;
62121;SDS011;48108;47.532;19.084;2022-07-06T09:41:29;2.22;;;2.03;;
62121;SDS011;48108;47.532;19.084;2022-07-06T09:44:38;3.70;;;2.25;;
62121;SDS011;48108;47.532;19.084;2022-07-06T09:47:47;2.17;;;1.98;;
62121;SDS011;48108;47.532;19.084;2022-07-06T09:50:51;2.57;;;2.13;;
62121;SDS011;48108;47.532;19.084;2022-07-06T09:53:57;2.03;;;1.92;;
62121;SDS011;48108;47.532;19.084;2022-07-06T09:57:02;2.40;;;2.20;;
62121;SDS011;48108;47.532;19.084;2022-07-06T10:00:10;2.00;;;1.90;;
62121;SDS011;48108;47.532;19.084;2022-07-06T10:03:17;2.22;;;2.03;;
62121;SDS011;48108;47.532;19.084;2022-07-06T10:06:20;2.25;;;1.80;;
62121;SDS011;48108;47.532;19.084;2022-07-06T10:09:24;2.28;;;2.08;;
62121;SDS011;48108;47.532;19.084;2022-07-06T10:12:32;5.68;;;2.45;;
62121;SDS011;48108;47.532;19.084;2022-07-06T10:15:36;2.00;;;1.80;;
62121;SDS011;48108;47.532;19.084;2022-07-06T10:18:40;3.35;;;2.40;;
62121;SDS011;48108;47.532;19.084;2022-07-06T10:21:44;2.30;;;2.10;;
62121;SDS011;48108;47.532;19.084;2022-07-06T10:24:47;3.33;;;2.03;;
62121;SDS011;48108;47.532;19.084;2022-07-06T10:27:52;2.37;;;2.17;;
62121;SDS011;48108;47.532;19.084;2022-07-06T10:30:55;2.87;;;2.20;;
62121;SDS011;48108;47.532;19.084;2022-07-06T10:33:59;2.08;;;1.80;;
62121;SDS011;48108;47.532;19.084;2022-07-06T10:37:03;3.80;;;1.62;;
62121;SDS011;48108;47.532;19.084;2022-07-06T10:40:07;1.87;;;1.77;;
62121;SDS011;48108;47.532;19.084;2022-07-06T10:46:38;1.80;;;1.70;;
62121;SDS011;48108;47.532;19.084;2022-07-06T10:49:48;1.73;;;1.62;;
62121;SDS011;48108;47.532;19.084;2022-07-06T10:53:01;3.47;;;2.08;;
62121;SDS011;48108;47.532;19.084;2022-07-06T10:56:08;2.45;;;2.20;;
62121;SDS011;48108;47.532;19.084;2022-07-06T10:59:14;2.40;;;2.20;;
62121;SDS011;48108;47.532;19.084;2022-07-06T11:02:19;2.40;;;2.17;;
62121;SDS011;48108;47.532;19.084;2022-07-06T11:05:41;3.45;;;1.98;;
62121;SDS011;48108;47.532;19.084;2022-07-06T11:09:05;2.47;;;2.03;;
62121;SDS011;48108;47.532;19.084;2022-07-06T11:19:01;2.03;;;1.70;;
62121;SDS011;48108;47.532;19.084;2022-07-06T11:22:14;1.77;;;1.67;;
62121;SDS011;48108;47.532;19.084;2022-07-06T11:25:19;2.65;;;1.87;;
62121;SDS011;48108;47.532;19.084;2022-07-06T11:28:22;1.58;;;1.48;;
62121;SDS011;48108;47.532;19.084;2022-07-06T11:31:26;2.05;;;1.90;;
62121;SDS011;48108;47.532;19.084;2022-07-06T11:34:29;4.55;;;1.67;;
62121;SDS011;48108;47.532;19.084;2022-07-06T11:37:37;1.70;;;1.60;;
62121;SDS011;48108;47.532;19.084;2022-07-06T11:40:39;2.00;;;1.25;;
62121;SDS011;48108;47.532;19.084;2022-07-06T11:43:43;1.62;;;1.52;;
62121;SDS011;48108;47.532;19.084;2022-07-06T11:46:47;2.00;;;1.67;;
62121;SDS011;48108;47.532;19.084;2022-07-06T11:49:51;2.12;;;1.90;;
62121;SDS011;48108;47.532;19.084;2022-07-06T11:52:55;2.25;;;2.08;;
62121;SDS011;48108;47.532;19.084;2022-07-06T11:56:02;2.37;;;1.90;;
62121;SDS011;48108;47.532;19.084;2022-07-06T11:59:05;3.10;;;2.30;;
62121;SDS011;48108;47.532;19.084;2022-07-06T12:02:11;2.08;;;1.98;;
62121;SDS011;48108;47.532;19.084;2022-07-06T12:05:28;2.40;;;1.80;;
62121;SDS011;48108;47.532;19.084;2022-07-06T12:08:32;2.58;;;2.12;;
62121;SDS011;48108;47.532;19.084;2022-07-06T12:11:37;2.20;;;2.00;;
62121;SDS011;48108;47.532;19.084;2022-07-06T12:14:42;2.12;;;1.95;;
62121;SDS011;48108;47.532;19.084;2022-07-06T12:17:48;1.95;;;1.85;;
62121;SDS011;48108;47.532;19.084;2022-07-06T12:20:52;2.15;;;2.05;;
62121;SDS011;48108;47.532;19.084;2022-07-06T12:23:57;2.58;;;2.17;;
62121;SDS011;48108;47.532;19.084;2022-07-06T12:27:10;2.72;;;2.53;;
62121;SDS011;48108;47.532;19.084;2022-07-06T12:30:13;2.15;;;1.95;;
62121;SDS011;48108;47.532;19.084;2022-07-06T12:33:24;2.22;;;2.12;;
62121;SDS011;48108;47.532;19.084;2022-07-06T12:36:30;2.20;;;2.00;;
62121;SDS011;48108;47.532;19.084;2022-07-06T12:39:39;2.22;;;2.03;;
62121;SDS011;48108;47.532;19.084;2022-07-06T12:42:47;2.40;;;2.20;;
62121;SDS011;48108;47.532;19.084;2022-07-06T12:45:50;2.28;;;2.08;;
62121;SDS011;48108;47.532;19.084;2022-07-06T12:48:53;3.62;;;1.95;;
62121;SDS011;48108;47.532;19.084;2022-07-06T12:51:57;2.00;;;1.90;;
62121;SDS011;48108;47.532;19.084;2022-07-06T12:55:05;1.90;;;1.80;;
62121;SDS011;48108;47.532;19.084;2022-07-06T12:58:17;1.70;;;1.60;;
62121;SDS011;48108;47.532;19.084;2022-07-06T13:01:21;2.47;;;1.77;;
62121;SDS011;48108;47.532;19.084;2022-07-06T13:04:25;1.77;;;1.60;;
62121;SDS011;48108;47.532;19.084;2022-07-06T13:07:30;1.62;;;1.52;;
62121;SDS011;48108;47.532;19.084;2022-07-06T13:10:34;1.67;;;1.58;;
62121;SDS011;48108;47.532;19.084;2022-07-06T13:13:44;1.77;;;1.67;;
62121;SDS011;48108;47.532;19.084;2022-07-06T13:16:47;1.45;;;1.33;;
62121;SDS011;48108;47.532;19.084;2022-07-06T13:19:51;2.37;;;1.40;;
62121;SDS011;48108;47.532;19.084;2022-07-06T13:22:53;2.05;;;1.50;;
62121;SDS011;48108;47.532;19.084;2022-07-06T13:25:56;2.25;;;1.40;;
62121;SDS011;48108;47.532;19.084;2022-07-06T13:29:00;1.25;;;1.15;;
62121;SDS011;48108;47.532;19.084;2022-07-06T13:32:04;1.52;;;1.42;;
62121;SDS011;48108;47.532;19.084;2022-07-06T13:35:08;1.02;;;1.02;;
62121;SDS011;48108;47.532;19.084;2022-07-06T13:38:12;1.80;;;1.50;;
62121;SDS011;48108;47.532;19.084;2022-07-06T13:41:16;4.62;;;1.62;;
62121;SDS011;48108;47.532;19.084;2022-07-06T13:44:20;2.22;;;1.30;;
62121;SDS011;48108;47.532;19.084;2022-07-06T13:47:23;2.47;;;1.48;;
62121;SDS011;48108;47.532;19.084;2022-07-06T13:50:26;3.10;;;1.58;;
62121;SDS011;48108;47.532;19.084;2022-07-06T13:53:34;1.80;;;1.62;;
62121;SDS011;48108;47.532;19.084;2022-07-06T13:56:38;1.48;;;1.37;;
62121;SDS011;48108;47.532;19.084;2022-07-06T13:59:41;1.35;;;1.35;;
62121;SDS011;48108;47.532;19.084;2022-07-06T14:02:45;1.60;;;1.50;;
62121;SDS011;48108;47.532;19.084;2022-07-06T14:05:48;2.08;;;1.20;;
62121;SDS011;48108;47.532;19.084;2022-07-06T14:08:51;1.62;;;1.42;;
62121;SDS011;48108;47.532;19.084;2022-07-06T14:11:54;1.70;;;1.60;;
62121;SDS011;48108;47.532;19.084;2022-07-06T14:14:57;1.50;;;1.40;;
62121;SDS011;48108;47.532;19.084;2022-07-06T14:18:00;1.98;;;1.60;;
62121;SDS011;48108;47.532;19.084;2022-07-06T14:21:03;1.37;;;1.27;;
62121;SDS011;48108;47.532;19.084;2022-07-06T14:24:06;1.40;;;1.30;;
62121;SDS011;48108;47.532;19.084;2022-07-06T14:27:09;3.20;;;1.67;;
62121;SDS011;48108;47.532;19.084;2022-07-06T14:30:12;2.65;;;1.70;;
62121;SDS011;48108;47.532;19.084;2022-07-06T14:33:15;3.05;;;1.80;;
62121;SDS011;48108;47.532;19.084;2022-07-06T14:36:18;1.55;;;1.45;;
62121;SDS011;48108;47.532;19.084;2022-07-06T14:39:20;4.45;;;1.92;;
62121;SDS011;48108;47.532;19.084;2022-07-06T14:42:23;2.85;;;1.55;;
62121;SDS011;48108;47.532;19.084;2022-07-06T14:45:26;1.75;;;1.65;;
62121;SDS011;48108;47.532;19.084;2022-07-06T14:48:29;2.10;;;1.90;;
62121;SDS011;48108;47.532;19.084;2022-07-06T14:51:32;1.60;;;1.50;;
62121;SDS011;48108;47.532;19.084;2022-07-06T14:54:34;1.52;;;1.42;;
62121;SDS011;48108;47.532;19.084;2022-07-06T14:57:38;1.40;;;1.30;;
62121;SDS011;48108;47.532;19.084;2022-07-06T15:00:41;1.40;;;1.30;;
62121;SDS011;48108;47.532;19.084;2022-07-06T15:03:44;1.02;;;1.02;;
62121;SDS011;48108;47.532;19.084;2022-07-06T15:06:47;1.10;;;1.10;;
62121;SDS011;48108;47.532;19.084;2022-07-06T15:09:58;0.95;;;0.73;;
62121;SDS011;48108;47.532;19.084;2022-07-06T15:13:01;1.10;;;1.00;;
62121;SDS011;48108;47.532;19.084;2022-07-06T15:16:04;1.10;;;1.10;;
62121;SDS011;48108;47.532;19.084;2022-07-06T15:19:07;2.70;;;1.00;;
62121;SDS011;48108;47.532;19.084;2022-07-06T15:22:10;1.27;;;1.17;;
62121;SDS011;48108;47.532;19.084;2022-07-06T15:25:14;1.05;;;1.00;;
62121;SDS011;48108;47.532;19.084;2022-07-06T15:28:16;1.27;;;1.17;;
62121;SDS011;48108;47.532;19.084;2022-07-06T15:31:22;0.90;;;0.90;;
62121;SDS011;48108;47.532;19.084;2022-07-06T15:34:24;0.93;;;0.93;;
62121;SDS011;48108;47.532;19.084;2022-07-06T15:37:27;1.00;;;1.00;;
62121;SDS011;48108;47.532;19.084;2022-07-06T15:40:30;1.33;;;1.10;;
62121;SDS011;48108;47.532;19.084;2022-07-06T15:43:45;1.37;;;1.05;;
62121;SDS011;48108;47.532;19.084;2022-07-06T15:46:55;2.85;;;1.08;;
62121;SDS011;48108;47.532;19.084;2022-07-06T15:49:59;1.75;;;1.15;;
62121;SDS011;48108;47.532;19.084;2022-07-06T15:53:02;1.12;;;1.12;;
62121;SDS011;48108;47.532;19.084;2022-07-06T15:56:05;2.78;;;1.05;;
62121;SDS011;48108;47.532;19.084;2022-07-06T15:59:11;1.20;;;1.00;;
62121;SDS011;48108;47.532;19.084;2022-07-06T16:02:13;1.10;;;1.00;;
62121;SDS011;48108;47.532;19.084;2022-07-06T16:05:17;1.20;;;1.15;;
